Time;durP1;ratioP1;P1;durP2;ratioP2;P2;SDS_P1;SDS_P2;PMS_P1;PMS_P2;Temp;Humidity;BMP_temperature;BMP_pressure;BME280_temperature;BME280_humidity;BME280_pressure;Samples;Min_cycle;Max_cycle;Signal;HPM_P1;HPM_P2
2023/04/16 00:01:13;;;;;;;73.32;33.17;;;10.20;99.90;;;;;;5028419;28;20680;-53
2023/04/16 00:11:10;;;;;;;75.20;33.20;;;8.20;99.90;;;;;;5012568;28;20154;-46
2023/04/16 00:13:36;;;;;;;63.72;32.55;;;8.30;99.90;;;;;;5036765;28;20401;-47
2023/04/16 00:16:02;;;;;;;66.35;32.53;;;8.20;99.90;;;;;;5032932;28;20042;-45
2023/04/16 00:18:27;;;;;;;65.55;30.98;;;8.20;99.90;;;;;;5026974;28;20080;-46
2023/04/16 00:20:53;;;;;;;70.72;31.35;;;8.20;99.90;;;;;;5038635;28;20042;-46
2023/04/16 00:23:19;;;;;;;62.25;30.98;;;5.80;99.90;;;;;;5027770;28;20045;-49
2023/04/16 00:25:45;;;;;;;64.40;30.83;;;8.80;99.90;;;;;;5016727;28;20524;-47
2023/04/16 00:28:11;;;;;;;66.72;30.10;;;8.20;99.90;;;;;;5033267;28;20099;-47
2023/04/16 00:30:37;;;;;;;68.57;31.52;;;8.10;99.90;;;;;;5036571;28;20045;-47
2023/04/16 00:33:03;;;;;;;68.50;31.75;;;8.10;99.90;;;;;;5033359;28;20116;-47
2023/04/16 00:35:29;;;;;;;70.38;30.27;;;8.10;99.90;;;;;;5031614;28;20064;-47
2023/04/16 00:37:55;;;;;;;71.82;30.85;;;8.60;99.90;;;;;;5030238;28;20045;-47
2023/04/16 00:40:21;;;;;;;68.60;29.67;;;8.00;99.90;;;;;;5030139;28;20080;-47
2023/04/16 00:42:46;;;;;;;59.58;32.10;;;8.00;99.90;;;;;;5034083;28;20040;-47
2023/04/16 00:45:12;;;;;;;58.28;30.45;;;8.00;99.90;;;;;;5034299;28;20045;-49
2023/04/16 00:47:38;;;;;;;80.90;34.10;;;8.50;99.90;;;;;;5036704;28;20167;-48
2023/04/16 00:50:04;;;;;;;60.58;30.85;;;10.20;99.90;;;;;;5039345;28;20042;-47
2023/04/16 00:52:32;;;;;;;74.60;32.92;;;7.90;99.90;;;;;;5017985;28;20049;-49
2023/04/16 00:54:58;;;;;;;71.35;31.63;;;8.00;99.90;;;;;;5030822;28;20056;-48
2023/04/16 00:57:24;;;;;;;66.78;31.80;;;8.50;99.90;;;;;;5043994;28;20260;-48
2023/04/16 00:59:50;;;;;;;74.68;33.20;;;7.90;99.90;;;;;;5041230;28;20068;-47
2023/04/16 01:02:16;;;;;;;75.50;34.55;;;9.30;99.90;;;;;;5040350;28;20037;-47
2023/04/16 01:04:42;;;;;;;73.63;35.03;;;8.90;99.90;;;;;;5036146;28;20046;-47
2023/04/16 01:07:08;;;;;;;67.75;33.95;;;8.80;99.90;;;;;;5031630;28;20175;-47
2023/04/16 01:09:33;;;;;;;75.43;36.38;;;7.90;99.90;;;;;;5028561;28;20092;-49
2023/04/16 01:11:59;;;;;;;66.32;35.63;;;8.90;99.90;;;;;;5034760;28;20131;-47
2023/04/16 01:14:24;;;;;;;73.90;34.75;;;8.00;99.90;;;;;;5040760;28;20090;-48
2023/04/16 01:16:50;;;;;;;76.95;34.95;;;7.80;99.90;;;;;;5038252;28;20045;-46
2023/04/16 01:19:16;;;;;;;72.32;35.55;;;7.90;99.90;;;;;;5036893;28;20060;-47
2023/04/16 01:21:41;;;;;;;89.63;37.20;;;9.20;99.90;;;;;;5016535;28;20041;-50
2023/04/16 01:24:07;;;;;;;72.28;33.30;;;8.90;99.90;;;;;;5039260;28;20107;-49
2023/04/16 01:26:33;;;;;;;74.60;36.08;;;7.80;99.90;;;;;;5031957;28;20471;-49
2023/04/16 01:28:59;;;;;;;75.38;35.75;;;7.80;99.90;;;;;;5034586;28;20041;-47
2023/04/16 01:31:25;;;;;;;65.50;34.78;;;7.90;99.90;;;;;;5034277;28;20056;-47
2023/04/16 01:33:50;;;;;;;87.22;37.83;;;8.30;99.90;;;;;;5037759;28;20041;-47
2023/04/16 01:36:16;;;;;;;69.30;36.20;;;7.80;99.90;;;;;;5038885;28;20056;-47
2023/04/16 01:38:42;;;;;;;75.45;35.17;;;8.50;99.90;;;;;;5033205;28;20040;-49
2023/04/16 01:41:07;;;;;;;78.03;35.80;;;7.80;99.90;;;;;;5035408;28;20037;-47
2023/04/16 01:43:33;;;;;;;67.85;34.97;;;7.70;99.90;;;;;;5038917;28;20112;-48
2023/04/16 01:46:12;;;;;;;67.05;34.33;;;7.80;99.90;;;;;;5033978;28;20879;-46
2023/04/16 01:48:38;;;;;;;71.95;35.67;;;8.20;99.90;;;;;;5033837;28;20041;-48
2023/04/16 01:51:04;;;;;;;82.03;39.53;;;7.80;99.90;;;;;;5033555;28;20553;-47
2023/04/16 01:53:30;;;;;;;72.43;37.72;;;7.70;99.90;;;;;;5036408;28;20449;-49
2023/04/16 01:55:55;;;;;;;74.43;36.28;;;8.80;99.90;;;;;;5033581;28;20061;-48
2023/04/16 01:58:21;;;;;;;87.65;38.63;;;8.10;99.90;;;;;;5033428;28;20059;-48
2023/04/16 02:00:47;;;;;;;85.03;40.13;;;7.70;99.90;;;;;;5034085;28;20041;-50
2023/04/16 02:03:12;;;;;;;76.07;38.75;;;7.70;99.90;;;;;;5036746;28;20124;-48
2023/04/16 02:05:38;;;;;;;86.30;39.30;;;7.70;99.90;;;;;;5039186;28;20463;-47
2023/04/16 02:08:04;;;;;;;80.82;37.67;;;7.70;99.90;;;;;;5032473;28;20044;-46
2023/04/16 02:10:30;;;;;;;85.50;39.65;;;7.70;99.90;;;;;;5033998;28;20051;-47
2023/04/16 02:12:55;;;;;;;72.97;36.40;;;7.80;99.90;;;;;;5038211;28;20894;-47
2023/04/16 02:15:22;;;;;;;82.55;39.35;;;8.80;99.90;;;;;;5027301;28;20049;-49
2023/04/16 02:17:52;;;;;;;77.95;38.42;;;8.90;99.90;;;;;;5029942;28;20096;-48
2023/04/16 02:20:18;;;;;;;89.72;38.95;;;7.70;99.90;;;;;;5035760;28;20040;-46
2023/04/16 02:22:44;;;;;;;81.75;38.40;;;7.50;99.90;;;;;;5028335;28;20107;-46
2023/04/16 02:25:09;;;;;;;98.47;39.85;;;8.90;99.90;;;;;;5033009;28;20041;-47
2023/04/16 02:27:35;;;;;;;70.00;35.47;;;7.60;99.90;;;;;;5030756;28;21034;-47
2023/04/16 02:30:03;;;;;;;76.65;37.20;;;8.90;99.90;;;;;;5031339;28;20049;-47
2023/04/16 02:32:29;;;;;;;77.65;36.90;;;7.60;99.90;;;;;;5032353;28;20152;-47
2023/04/16 02:34:55;;;;;;;67.10;34.72;;;9.00;99.90;;;;;;5032417;28;20045;-50
2023/04/16 02:37:22;;;;;;;74.32;38.42;;;8.20;99.90;;;;;;5031790;28;20059;-49
2023/04/16 02:39:48;;;;;;;62.25;35.60;;;8.50;99.90;;;;;;5031587;28;20045;-47
2023/04/16 02:42:15;;;;;;;73.43;37.08;;;8.90;99.90;;;;;;5037557;28;20044;-48
2023/04/16 02:44:41;;;;;;;71.47;36.55;;;9.00;99.90;;;;;;5029858;28;20372;-48
2023/04/16 02:47:06;;;;;;;66.13;35.63;;;7.50;99.90;;;;;;5036024;28;20045;-49
2023/04/16 02:49:32;;;;;;;66.20;34.35;;;8.90;99.90;;;;;;5031034;28;20041;-49
2023/04/16 02:51:58;;;;;;;72.82;34.83;;;7.60;99.90;;;;;;5032957;28;20049;-48
2023/04/16 02:54:23;;;;;;;69.70;36.30;;;8.30;99.90;;;;;;5031934;28;20051;-47
2023/04/16 02:56:49;;;;;;;63.88;33.72;;;8.70;99.90;;;;;;5033334;28;20068;-49
2023/04/16 02:59:15;;;;;;;65.88;34.65;;;7.50;99.90;;;;;;5037015;28;20049;-48
2023/04/16 03:01:41;;;;;;;68.63;35.63;;;7.60;99.90;;;;;;5031030;28;20052;-46
2023/04/16 03:04:06;;;;;;;96.00;36.97;;;8.60;99.90;;;;;;5040372;28;20045;-47
2023/04/16 03:06:32;;;;;;;75.47;35.50;;;8.80;99.90;;;;;;5029836;28;20051;-50
2023/04/16 03:08:58;;;;;;;87.20;37.92;;;7.60;99.90;;;;;;5036587;28;20090;-50
2023/04/16 03:11:23;;;;;;;68.32;34.92;;;7.50;99.90;;;;;;5032653;28;20040;-50
2023/04/16 03:13:49;;;;;;;74.05;36.50;;;7.50;99.90;;;;;;5031206;28;20052;-48
2023/04/16 03:16:15;;;;;;;75.93;38.13;;;8.00;99.90;;;;;;5029498;28;20805;-47
2023/04/16 03:18:41;;;;;;;82.85;36.60;;;7.50;99.90;;;;;;5042267;28;20048;-49
2023/04/16 03:21:06;;;;;;;69.25;35.20;;;8.30;99.90;;;;;;5029699;28;20573;-50
2023/04/16 03:23:32;;;;;;;80.45;36.72;;;7.60;99.90;;;;;;5033801;28;20045;-45
2023/04/16 03:25:58;;;;;;;79.40;35.30;;;7.60;99.90;;;;;;5037563;28;20042;-48
2023/04/16 03:28:24;;;;;;;71.82;33.92;;;8.50;99.90;;;;;;5032361;28;20830;-48
2023/04/16 03:30:51;;;;;;;81.13;35.95;;;7.70;99.90;;;;;;5037442;28;20750;-49
2023/04/16 03:33:17;;;;;;;91.22;35.03;;;8.20;99.90;;;;;;5025795;28;20714;-46
2023/04/16 03:35:43;;;;;;;69.68;34.20;;;5.10;99.90;;;;;;5032937;28;20045;-46
2023/04/16 03:38:09;;;;;;;65.45;32.10;;;7.50;99.90;;;;;;5012489;28;20048;-49
2023/04/16 03:40:34;;;;;;;80.05;33.95;;;7.60;99.90;;;;;;5032970;28;20096;-46
2023/04/16 03:43:00;;;;;;;65.57;32.08;;;8.50;99.90;;;;;;5032782;28;20120;-46
2023/04/16 03:45:26;;;;;;;82.13;35.85;;;7.40;99.90;;;;;;5029194;28;20055;-47
2023/04/16 03:47:51;;;;;;;69.13;31.55;;;8.80;99.90;;;;;;5032207;28;20046;-49
2023/04/16 03:50:19;;;;;;;77.50;33.42;;;7.50;99.90;;;;;;5038990;28;20113;-47
2023/04/16 03:52:48;;;;;;;72.78;33.92;;;7.90;99.90;;;;;;5036479;28;20041;-47
2023/04/16 03:55:13;;;;;;;77.43;33.20;;;7.60;99.90;;;;;;5030940;28;20658;-46
2023/04/16 03:57:40;;;;;;;70.88;34.55;;;7.50;99.90;;;;;;5039822;28;20049;-49
2023/04/16 04:00:06;;;;;;;74.93;32.90;;;8.10;99.90;;;;;;5027746;28;20037;-46
2023/04/16 04:02:32;;;;;;;78.95;34.28;;;7.40;99.90;;;;;;5031397;28;20049;-48
2023/04/16 04:04:57;;;;;;;85.63;36.28;;;8.50;99.90;;;;;;5034974;28;20041;-48
2023/04/16 04:07:23;;;;;;;90.63;35.45;;;7.50;99.90;;;;;;5034192;28;20106;-48
2023/04/16 04:09:49;;;;;;;83.97;35.20;;;8.00;99.90;;;;;;5027183;28;20151;-47
2023/04/16 04:12:15;;;;;;;92.80;36.70;;;7.40;99.90;;;;;;5031128;28;20052;-46
2023/04/16 04:14:40;;;;;;;80.50;34.58;;;7.50;99.90;;;;;;5038558;28;20690;-48
2023/04/16 04:17:07;;;;;;;85.38;35.25;;;8.60;99.90;;;;;;5040099;28;20060;-50
2023/04/16 04:19:33;;;;;;;80.75;36.15;;;7.40;99.90;;;;;;5035027;28;20087;-49
2023/04/16 04:21:59;;;;;;;84.43;35.80;;;8.20;99.90;;;;;;5034487;28;20045;-48
2023/04/16 04:24:25;;;;;;;87.60;36.67;;;7.40;99.90;;;;;;5040765;28;20041;-49
2023/04/16 04:26:51;;;;;;;76.88;34.28;;;7.30;99.90;;;;;;5036391;28;20044;-48
2023/04/16 04:29:17;;;;;;;87.70;37.20;;;8.00;99.90;;;;;;5033286;28;20514;-47
2023/04/16 04:31:42;;;;;;;91.47;35.70;;;7.90;99.90;;;;;;5037988;28;20048;-47
2023/04/16 04:34:08;;;;;;;88.28;36.05;;;7.70;99.90;;;;;;5035905;28;20037;-49
2023/04/16 04:36:34;;;;;;;83.63;36.05;;;7.10;99.90;;;;;;5029565;28;20080;-47
2023/04/16 04:38:59;;;;;;;91.05;37.72;;;8.70;99.90;;;;;;5030166;28;20069;-47
2023/04/16 04:41:25;;;;;;;79.00;36.05;;;7.50;99.90;;;;;;5041535;28;20048;-48
2023/04/16 04:43:51;;;;;;;79.53;35.10;;;7.20;99.90;;;;;;5034564;28;20482;-47
2023/04/16 04:46:17;;;;;;;85.68;34.72;;;7.30;99.90;;;;;;5044735;28;20084;-47
2023/04/16 04:48:42;;;;;;;85.32;34.30;;;7.10;99.90;;;;;;5040619;28;20048;-46
2023/04/16 04:51:08;;;;;;;90.32;36.08;;;7.10;99.90;;;;;;5035927;28;20073;-48
2023/04/16 04:53:34;;;;;;;77.13;34.45;;;7.10;99.90;;;;;;5034843;28;20037;-50
2023/04/16 04:56:00;;;;;;;94.20;37.08;;;7.20;99.90;;;;;;5032868;28;20080;-47
2023/04/16 04:58:25;;;;;;;83.28;35.30;;;8.20;99.90;;;;;;5043484;28;20052;-48
2023/04/16 05:00:51;;;;;;;90.28;39.30;;;6.90;99.90;;;;;;5033458;28;20577;-47
2023/04/16 05:03:20;;;;;;;99.88;39.55;;;9.00;99.90;;;;;;5035721;28;20033;-47
2023/04/16 05:05:46;;;;;;;107.63;42.80;;;7.10;99.90;;;;;;5039246;28;20095;-47
2023/04/16 05:08:12;;;;;;;100.13;42.85;;;8.30;99.90;;;;;;5040183;28;20048;-47
2023/04/16 05:10:37;;;;;;;96.50;37.42;;;6.70;99.90;;;;;;5023197;28;20037;-51
2023/04/16 05:13:03;;;;;;;81.20;34.80;;;7.70;99.90;;;;;;5033719;28;20041;-46
2023/04/16 05:15:29;;;;;;;76.82;31.55;;;6.40;99.90;;;;;;5039648;28;20046;-47
2023/04/16 05:17:55;;;;;;;81.30;33.20;;;6.60;99.90;;;;;;5036986;28;20110;-47
2023/04/16 05:20:23;;;;;;;94.60;37.22;;;7.60;99.90;;;;;;5031962;28;20251;-47
2023/04/16 05:22:51;;;;;;;87.68;34.80;;;6.50;99.90;;;;;;5037625;28;20403;-47
2023/04/16 05:25:17;;;;;;;95.85;36.20;;;6.60;99.90;;;;;;5036071;28;20434;-47
2023/04/16 05:27:43;;;;;;;100.03;36.92;;;6.70;99.90;;;;;;5030574;28;20053;-49
2023/04/16 05:30:09;;;;;;;88.75;35.97;;;7.70;99.90;;;;;;5033737;28;20148;-46
2023/04/16 05:32:37;;;;;;;96.40;35.95;;;6.60;99.90;;;;;;5031184;28;20474;-47
2023/04/16 05:35:03;;;;;;;97.60;39.15;;;8.90;99.90;;;;;;5029997;28;20050;-46
2023/04/16 05:37:29;;;;;;;90.10;38.08;;;6.90;99.90;;;;;;5039150;28;20045;-47
2023/04/16 05:39:54;;;;;;;81.82;35.92;;;7.00;99.90;;;;;;5038597;28;20776;-47
2023/04/16 05:42:20;;;;;;;80.13;34.72;;;7.10;99.90;;;;;;5033241;28;20044;-48
2023/04/16 05:44:46;;;;;;;75.35;33.85;;;7.80;99.90;;;;;;5033593;28;20041;-50
2023/04/16 05:47:11;;;;;;;89.40;36.35;;;7.60;99.90;;;;;;5028765;28;20041;-46
2023/04/16 05:49:37;;;;;;;88.40;36.13;;;7.40;99.90;;;;;;5036475;28;20092;-47
2023/04/16 05:52:04;;;;;;;96.10;36.47;;;7.40;99.90;;;;;;5032100;28;20124;-48
2023/04/16 05:54:29;;;;;;;93.32;35.92;;;7.40;99.90;;;;;;5032258;28;20060;-47
2023/04/16 05:56:55;;;;;;;75.30;34.00;;;7.90;99.90;;;;;;5017756;28;20045;-47
2023/04/16 05:59:21;;;;;;;79.78;35.20;;;7.60;99.90;;;;;;5029406;28;20045;-49
2023/04/16 06:01:46;;;;;;;83.32;34.38;;;7.50;99.90;;;;;;5033088;28;20040;-48
2023/04/16 06:04:12;;;;;;;77.50;36.42;;;8.20;99.90;;;;;;5038723;28;20087;-47
2023/04/16 06:06:39;;;;;;;70.05;34.67;;;8.40;99.90;;;;;;5032106;28;20045;-49
2023/04/16 06:09:04;;;;;;;80.70;35.33;;;7.70;99.90;;;;;;5037710;28;20761;-48
2023/04/16 06:11:30;;;;;;;76.95;33.67;;;7.90;99.90;;;;;;5026931;28;20037;-48
2023/04/16 06:13:56;;;;;;;76.90;35.28;;;7.80;99.90;;;;;;5033327;28;20671;-49
2023/04/16 06:16:21;;;;;;;75.50;35.03;;;7.90;99.90;;;;;;5029032;28;20054;-48
2023/04/16 06:18:47;;;;;;;67.65;32.97;;;;;;;;;;5032537;28;20132;-48
2023/04/16 06:21:13;;;;;;;63.65;33.30;;;8.00;99.90;;;;;;5035085;28;20049;-48
2023/04/16 06:23:39;;;;;;;62.45;31.95;;;8.00;99.90;;;;;;5033878;28;20591;-48
2023/04/16 06:26:05;;;;;;;57.08;32.35;;;8.20;99.90;;;;;;5027458;28;20041;-48
2023/04/16 06:28:30;;;;;;;59.90;31.13;;;8.10;99.90;;;;;;5033626;28;20124;-47
2023/04/16 06:30:56;;;;;;;56.28;32.00;;;9.30;99.90;;;;;;5032947;28;20636;-50
2023/04/16 06:33:22;;;;;;;65.30;34.33;;;8.20;99.90;;;;;;5034367;28;20044;-49
2023/04/16 06:35:48;;;;;;;64.95;33.53;;;8.30;99.90;;;;;;5030902;28;20056;-49
2023/04/16 06:38:14;;;;;;;67.78;32.42;;;8.40;99.90;;;;;;5034805;28;20040;-48
2023/04/16 06:40:40;;;;;;;57.42;31.30;;;8.50;99.90;;;;;;5028244;28;20511;-48
2023/04/16 06:43:06;;;;;;;52.88;30.65;;;8.50;99.90;;;;;;5030853;28;20126;-48
2023/04/16 06:45:31;;;;;;;60.47;31.98;;;8.50;99.90;;;;;;5036645;28;20095;-47
2023/04/16 06:48:02;;;;;;;59.90;31.90;;;8.50;99.90;;;;;;5038286;28;20091;-48
2023/04/16 06:50:27;;;;;;;49.97;28.63;;;8.60;99.90;;;;;;5032915;28;20042;-47
2023/04/16 06:52:54;;;;;;;56.35;30.23;;;8.70;99.90;;;;;;5038856;28;20449;-51
2023/04/16 06:55:20;;;;;;;59.88;30.63;;;8.60;99.90;;;;;;5034452;28;20044;-47
2023/04/16 06:57:45;;;;;;;57.70;29.17;;;8.60;99.90;;;;;;5033761;28;20049;-48
2023/04/16 07:00:12;;;;;;;54.10;28.08;;;8.60;99.90;;;;;;5036319;28;20048;-50
2023/04/16 07:02:37;;;;;;;59.90;30.65;;;8.60;99.90;;;;;;5028099;28;20549;-47
2023/04/16 07:05:03;;;;;;;58.40;29.95;;;8.70;99.90;;;;;;5035448;28;20045;-47
2023/04/16 07:07:29;;;;;;;53.15;29.98;;;8.60;99.90;;;;;;5031658;28;20048;-47
2023/04/16 07:09:55;;;;;;;55.33;29.55;;;8.90;99.90;;;;;;5034718;28;20380;-47
2023/04/16 07:12:21;;;;;;;56.80;28.85;;;8.50;99.90;;;;;;5033283;28;20478;-48
2023/04/16 07:14:47;;;;;;;60.55;28.27;;;9.70;99.90;;;;;;5031115;28;20506;-48
2023/04/16 07:17:12;;;;;;;55.67;27.85;;;8.80;99.90;;;;;;5035103;28;20402;-48
2023/04/16 07:19:38;;;;;;;52.78;27.08;;;8.60;99.90;;;;;;5030567;28;20099;-49
2023/04/16 07:22:04;;;;;;;59.28;28.15;;;9.00;99.90;;;;;;5034645;28;20055;-49
2023/04/16 07:24:30;;;;;;;55.08;29.02;;;8.60;99.90;;;;;;5037519;28;20041;-48
2023/04/16 07:26:55;;;;;;;53.67;28.20;;;8.80;99.90;;;;;;5036052;28;20056;-47
2023/04/16 07:29:21;;;;;;;53.53;27.83;;;10.00;99.90;;;;;;5031352;28;20052;-48
2023/04/16 07:31:47;;;;;;;57.20;29.67;;;8.70;99.90;;;;;;5037387;28;20099;-48
2023/04/16 07:34:13;;;;;;;60.15;28.27;;;8.80;99.90;;;;;;5030589;28;20099;-48
2023/04/16 07:36:38;;;;;;;54.40;27.35;;;8.80;99.90;;;;;;5031827;28;20045;-51
2023/04/16 07:39:05;;;;;;;53.67;28.58;;;8.90;99.90;;;;;;5026164;28;20056;-48
2023/04/16 07:41:31;;;;;;;55.75;30.00;;;10.00;99.90;;;;;;5027885;28;20049;-50
2023/04/16 07:43:57;;;;;;;54.85;28.65;;;9.20;99.90;;;;;;5034932;28;20041;-48
2023/04/16 07:46:22;;;;;;;52.13;29.20;;;9.10;99.90;;;;;;5027580;28;20046;-53
2023/04/16 07:48:48;;;;;;;56.15;30.55;;;9.20;99.90;;;;;;5034646;28;20053;-50
2023/04/16 07:51:14;;;;;;;52.58;28.27;;;9.40;99.90;;;;;;5042157;28;20033;-49
2023/04/16 07:53:40;;;;;;;46.55;26.35;;;11.70;99.90;;;;;;5034710;28;20052;-47
2023/04/16 07:56:06;;;;;;;49.55;29.15;;;9.50;99.90;;;;;;5035856;28;20053;-48
2023/04/16 07:58:32;;;;;;;45.20;28.80;;;9.60;99.90;;;;;;5038809;28;20747;-48
2023/04/16 08:00:58;;;;;;;49.85;28.40;;;10.50;99.90;;;;;;5039289;28;20136;-48
2023/04/16 08:03:24;;;;;;;43.20;25.73;;;10.40;99.90;;;;;;5037634;28;20040;-47
2023/04/16 08:16:52;;;;;;;46.53;25.50;;;9.90;99.90;;;;;;5039345;28;20195;-48
2023/04/16 08:19:18;;;;;;;41.10;22.95;;;10.10;99.90;;;;;;5033821;28;20527;-49
2023/04/16 08:21:44;;;;;;;42.53;23.25;;;10.40;99.90;;;;;;5037497;28;20041;-48
2023/04/16 08:24:10;;;;;;;47.90;25.30;;;10.50;99.90;;;;;;5038980;28;20044;-49
2023/04/16 08:30:20;;;;;;;40.13;21.63;;;11.10;99.90;;;;;;4995098;28;20124;-49
2023/04/16 08:32:46;;;;;;;37.47;21.98;;;11.60;99.90;;;;;;5038180;28;20037;-46
2023/04/16 08:35:17;;;;;;;42.75;21.17;;;11.90;99.90;;;;;;5023085;28;20045;-47
2023/04/16 08:37:43;;;;;;;45.03;21.17;;;12.60;99.90;;;;;;5034663;28;20041;-46
2023/04/16 08:40:09;;;;;;;36.75;21.33;;;12.70;99.90;;;;;;5040477;28;20045;-46
2023/04/16 08:42:43;;;;;;;32.92;17.67;;;13.10;99.90;;;;;;5037343;28;20040;-48
2023/04/16 08:45:14;;;;;;;33.13;17.30;;;13.70;99.90;;;;;;5032415;28;20045;-46
2023/04/16 08:47:44;;;;;;;31.65;16.67;;;14.70;99.90;;;;;;5046024;28;20045;-47
2023/04/16 08:50:11;;;;;;;32.58;16.27;;;14.90;99.90;;;;;;5031030;28;20043;-48
2023/04/16 08:52:44;;;;;;;28.58;15.25;;;15.60;99.90;;;;;;5034627;28;20053;-49
2023/04/16 08:55:15;;;;;;;25.55;14.13;;;16.10;99.90;;;;;;5036893;28;20758;-48
2023/04/16 08:58:12;;;;;;;21.95;13.98;;;16.50;99.90;;;;;;5035227;28;20063;-49
2023/04/16 09:00:40;;;;;;;22.27;13.77;;;16.20;99.90;;;;;;5029180;28;20144;-48
2023/04/16 09:03:07;;;;;;;20.55;13.60;;;16.80;99.90;;;;;;5040109;28;20569;-48
2023/04/16 09:05:33;;;;;;;22.42;12.57;;;16.90;99.90;;;;;;5034867;28;20049;-47
2023/04/16 09:07:58;;;;;;;23.27;13.73;;;17.10;99.90;;;;;;5027122;28;20044;-47
2023/04/16 09:10:27;;;;;;;23.20;13.40;;;17.20;99.90;;;;;;5041235;28;20052;-47
2023/04/16 09:12:56;;;;;;;20.52;14.00;;;17.20;99.90;;;;;;5032375;28;20475;-46
2023/04/16 09:15:22;;;;;;;21.15;13.45;;;17.40;99.90;;;;;;5034672;28;20041;-48
2023/04/16 09:17:48;;;;;;;20.90;12.40;;;17.50;99.90;;;;;;5039286;28;20556;-47
2023/04/16 09:20:14;;;;;;;19.73;12.80;;;17.50;99.90;;;;;;5037369;28;20048;-49
2023/04/16 09:22:40;;;;;;;17.10;11.77;;;17.60;99.90;;;;;;5029195;28;20049;-47
2023/04/16 09:25:06;;;;;;;20.55;12.18;;;17.80;99.90;;;;;;5034598;28;20072;-48
2023/04/16 09:27:32;;;;;;;22.63;12.57;;;18.00;99.90;;;;;;5035317;28;20033;-47
2023/04/16 09:29:58;;;;;;;20.05;11.80;;;18.10;99.90;;;;;;5040895;28;20552;-47
2023/04/16 09:32:27;;;;;;;22.17;12.57;;;18.20;99.90;;;;;;5034133;28;20045;-46
2023/04/16 09:34:54;;;;;;;19.83;13.02;;;18.20;99.90;;;;;;5038794;28;20049;-46
2023/04/16 09:37:20;;;;;;;18.10;11.35;;;18.30;99.90;;;;;;5032668;28;20064;-46
2023/04/16 09:39:54;;;;;;;16.67;12.10;;;18.40;99.90;;;;;;5033298;28;20100;-48
2023/04/16 09:42:26;;;;;;;19.02;12.18;;;18.30;99.80;;;;;;5038110;28;20487;-47
2023/04/16 09:44:51;;;;;;;21.40;12.35;;;18.30;99.30;;;;;;5036986;28;20047;-48
2023/04/16 09:47:17;;;;;;;19.40;11.25;;;18.20;99.90;;;;;;5035352;28;20049;-47
2023/04/16 09:49:43;;;;;;;21.08;12.35;;;18.20;99.90;;;;;;5035216;28;20033;-47
2023/04/16 09:52:21;;;;;;;20.02;13.25;;;18.10;99.50;;;;;;5031084;28;20558;-46
2023/04/16 09:54:51;;;;;;;18.77;12.82;;;18.20;98.70;;;;;;5033153;28;20128;-48
2023/04/16 09:57:21;;;;;;;20.10;12.23;;;18.10;98.60;;;;;;5017641;28;20104;-47
2023/04/16 09:59:51;;;;;;;24.33;12.73;;;18.00;98.50;;;;;;5039994;28;20085;-46
2023/04/16 10:02:17;;;;;;;17.85;13.25;;;17.50;99.90;;;;;;5034834;28;20795;-46
2023/04/16 10:04:50;;;;;;;18.80;11.65;;;17.80;97.30;;;;;;5038099;28;20128;-46
2023/04/16 10:07:16;;;;;;;22.50;12.93;;;17.90;97.40;;;;;;5037516;28;20101;-46
2023/04/16 10:09:42;;;;;;;17.70;11.95;;;17.90;97.60;;;;;;5030275;28;20056;-46
2023/04/16 10:12:09;;;;;;;18.42;12.02;;;17.90;97.20;;;;;;5033001;28;20041;-47
2023/04/16 10:14:35;;;;;;;21.95;12.77;;;18.00;97.30;;;;;;5035139;28;20060;-47
2023/04/16 10:17:02;;;;;;;19.45;11.95;;;17.90;97.80;;;;;;5032339;28;20511;-47
2023/04/16 10:19:32;;;;;;;19.50;11.88;;;;;;;;;;5034955;28;20473;-46
2023/04/16 10:21:58;;;;;;;17.80;12.05;;;17.90;98.10;;;;;;5033387;28;20053;-48
2023/04/16 10:24:24;;;;;;;21.08;12.50;;;18.00;97.50;;;;;;5033616;28;20045;-47
2023/04/16 10:26:51;;;;;;;24.48;13.70;;;18.00;99.10;;;;;;5039617;28;20116;-48
2023/04/16 10:29:18;;;;;;;20.90;10.93;;;18.10;96.00;;;;;;5032722;28;20434;-47
2023/04/16 10:31:45;;;;;;;17.38;12.50;;;18.00;95.50;;;;;;5032068;28;20439;-47
2023/04/16 10:34:11;;;;;;;17.42;12.00;;;18.10;95.90;;;;;;5039556;28;20029;-47
2023/04/16 10:36:38;;;;;;;22.17;12.93;;;18.00;95.80;;;;;;5029025;28;20120;-47
2023/04/16 10:39:10;;;;;;;16.35;11.52;;;18.00;95.50;;;;;;5035078;28;20056;-47
2023/04/16 10:41:36;;;;;;;17.42;12.07;;;18.00;95.60;;;;;;5034212;28;20048;-49
2023/04/16 10:44:08;;;;;;;19.05;11.95;;;18.10;95.70;;;;;;5029197;28;20060;-47
2023/04/16 10:46:45;;;;;;;19.52;12.27;;;18.30;95.10;;;;;;5020102;28;20966;-46
2023/04/16 10:49:23;;;;;;;17.95;12.13;;;18.40;94.90;;;;;;5010631;28;20107;-49
2023/04/16 10:52:11;;;;;;;19.27;12.63;;;18.40;94.60;;;;;;5031631;28;20387;-47
2023/04/16 10:54:38;;;;;;;19.70;12.77;;;18.50;94.10;;;;;;5030461;28;20029;-46
2023/04/16 10:57:09;;;;;;;22.95;12.73;;;18.50;94.60;;;;;;5035793;28;20053;-47
2023/04/16 10:59:36;;;;;;;19.35;13.38;;;18.70;94.40;;;;;;5035796;28;20050;-48
2023/04/16 11:02:14;;;;;;;17.25;12.45;;;18.70;93.80;;;;;;5032987;28;20676;-47
2023/04/16 11:04:43;;;;;;;16.00;11.27;;;18.70;92.90;;;;;;5039328;28;20060;-47
2023/04/16 11:07:17;;;;;;;15.63;11.70;;;18.70;92.80;;;;;;5033238;28;20037;-47
2023/04/16 11:09:52;;;;;;;15.68;11.27;;;18.80;93.00;;;;;;5032016;28;20046;-47
2023/04/16 11:12:22;;;;;;;17.85;12.68;;;18.80;92.80;;;;;;5030798;28;20743;-50
2023/04/16 11:14:52;;;;;;;15.55;12.18;;;18.90;92.70;;;;;;5032429;28;20037;-47
2023/04/16 11:17:20;;;;;;;16.85;12.48;;;19.10;96.90;;;;;;5037863;28;20469;-50
2023/04/16 11:19:46;;;;;;;18.67;12.57;;;18.90;92.60;;;;;;5033498;28;20139;-48
2023/04/16 11:22:16;;;;;;;17.38;11.88;;;18.80;92.40;;;;;;5030174;28;20144;-49
2023/04/16 11:24:46;;;;;;;16.70;11.43;;;18.90;92.50;;;;;;5035311;28;20068;-47
2023/04/16 11:27:15;;;;;;;14.38;11.68;;;18.90;92.20;;;;;;5008137;28;20051;-48
2023/04/16 11:29:41;;;;;;;18.15;12.50;;;18.90;92.50;;;;;;5032457;28;20491;-47
2023/04/16 11:32:07;;;;;;;18.00;12.75;;;18.90;92.50;;;;;;5027907;28;20037;-48
2023/04/16 11:34:33;;;;;;;16.95;11.85;;;19.00;92.50;;;;;;5038627;28;20044;-48
2023/04/16 11:36:59;;;;;;;17.45;11.35;;;19.00;92.40;;;;;;5027184;28;20155;-48
2023/04/16 12:01:44;;;;;;;19.75;10.75;;;18.20;91.80;;;;;;5011477;28;20127;-46
2023/04/16 12:04:15;;;;;;;18.58;11.43;;;17.80;92.20;;;;;;5024032;28;20050;-47
2023/04/16 12:10:07;;;;;;;17.73;11.75;;;17.30;91.40;;;;;;5024328;28;20045;-47
2023/04/16 12:12:33;;;;;;;21.67;11.70;;;17.20;92.70;;;;;;5024837;28;20088;-49
2023/04/16 12:15:02;;;;;;;20.75;11.85;;;17.10;92.80;;;;;;5019498;28;20050;-47
2023/04/16 12:17:30;;;;;;;15.73;10.63;;;16.90;97.20;;;;;;5024001;28;20050;-47
2023/04/16 12:20:00;;;;;;;15.65;11.23;;;17.10;97.50;;;;;;5023347;28;20579;-47
2023/04/16 12:26:09;;;;;;;16.08;11.23;;;16.60;97.00;;;;;;5014386;28;20048;-50
2023/04/16 12:28:52;;;;;;;16.08;10.88;;;16.90;92.90;;;;;;5018352;28;20045;-49
2023/04/16 12:39:34;;;;;;;17.00;10.57;;;18.00;92.90;;;;;;5014512;28;20044;-47
2023/04/16 12:46:20;;;;;;;19.30;11.60;;;18.00;92.40;;;;;;5000794;28;20438;-47
2023/04/16 12:57:01;;;;;;;14.70;10.25;;;17.90;91.90;;;;;;5014854;28;20091;-47
2023/04/16 13:00:07;;;;;;;21.05;11.75;;;17.90;92.50;;;;;;5011691;28;20149;-49
2023/04/16 13:02:55;;;;;;;21.08;12.27;;;18.40;96.90;;;;;;5004682;28;20057;-46
2023/04/16 13:20:34;;;;;;;22.40;12.82;;;17.10;97.50;;;;;;5010695;28;20028;-47
2023/04/16 13:23:43;;;;;;;20.38;13.13;;;17.30;97.70;;;;;;4997992;28;20061;-47
2023/04/16 13:26:59;;;;;;;23.75;13.02;;;17.10;97.90;;;;;;5002806;28;20057;-46
2023/04/16 13:29:47;;;;;;;23.77;12.75;;;16.80;93.50;;;;;;5001653;28;20038;-49
2023/04/16 13:36:28;;;;;;;26.10;14.38;;;16.70;94.50;;;;;;5004241;28;20753;-49
2023/04/16 13:47:10;;;;;;;23.10;14.65;;;16.80;94.70;;;;;;4999530;28;20057;-48
2023/04/16 13:49:47;;;;;;;21.40;15.45;;;16.90;94.40;;;;;;5005768;28;20100;-49
2023/04/16 13:52:13;;;;;;;25.95;15.07;;;17.10;98.20;;;;;;5009266;28;20052;-47
2023/04/16 13:54:39;;;;;;;22.52;14.68;;;16.80;94.40;;;;;;5014968;28;20050;-49
2023/04/16 14:00:46;;;;;;;23.52;14.95;;;16.40;98.50;;;;;;5011512;28;20087;-49
2023/04/16 14:03:11;;;;;;;27.33;16.10;;;16.40;98.90;;;;;;5032982;28;20465;-48
2023/04/16 14:05:37;;;;;;;23.90;15.05;;;16.50;94.80;;;;;;5037472;28;20364;-47
2023/04/16 14:08:03;;;;;;;25.08;15.32;;;16.60;94.70;;;;;;5030084;28;20080;-49
2023/04/16 14:10:30;;;;;;;28.98;18.60;;;16.50;94.70;;;;;;5034337;28;20106;-47
2023/04/16 14:12:56;;;;;;;28.20;16.08;;;16.50;94.80;;;;;;5040470;28;20084;-48
2023/04/16 14:15:22;;;;;;;26.23;15.35;;;16.50;94.70;;;;;;5032695;28;20107;-49
2023/04/16 14:17:48;;;;;;;23.35;14.75;;;16.50;94.80;;;;;;5034757;28;20057;-48